Time,TemperatureF,DewpointF,PressureIn,WindDirection,WindDirectionDegrees,WindSpeedMPH,WindSpeedGustMPH,Humidity,HourlyPrecipIn,Conditions,Clouds,dailyrainin,SoftwareType,DateUTC
2013-03-07 00:03:00,38.0,-99.9,29.62,ENE,62,3.0,10.0,-999,-99.99,,,-99.99,,2013-03-07 09:03:00,
2013-03-07 00:14:00,38.0,-99.9,29.62,ESE,102,4.0,16.0,-999,-99.99,,,-99.99,,2013-03-07 09:14:00,
2013-03-07 00:24:00,37.0,-99.9,29.62,SE,127,5.0,12.0,-999,-99.99,,,-99.99,,2013-03-07 09:24:00,
2013-03-07 00:33:00,37.0,-99.9,29.60,ENE,67,4.0,7.0,-999,-99.99,,,-99.99,,2013-03-07 09:33:00,
2013-03-07 00:43:00,37.0,-99.9,29.60,SW,216,3.0,8.0,-999,-99.99,,,-99.99,,2013-03-07 09:43:00,
2013-03-07 00:54:00,37.0,-99.9,29.59,North,2,6.0,13.0,-999,-99.99,,,-99.99,,2013-03-07 09:54:00,
2013-03-07 01:04:00,38.0,-99.9,29.58,NNE,33,3.0,20.0,-999,-99.99,,,-99.99,,2013-03-07 10:04:00,
2013-03-07 01:14:00,37.0,-99.9,29.57,North,6,6.0,14.0,-999,-99.99,,,-99.99,,2013-03-07 10:14:00,
2013-03-07 01:24:00,37.0,-99.9,29.57,NNW,347,6.0,15.0,-999,-99.99,,,-99.99,,2013-03-07 10:24:00,
2013-03-07 01:33:00,38.0,-99.9,29.57,NNE,27,7.0,18.0,-999,-99.99,,,-99.99,,2013-03-07 10:33:00,
2013-03-07 01:43:00,38.0,-99.9,29.55,North,4,7.0,15.0,-999,-99.99,,,-99.99,,2013-03-07 10:43:00,
2013-03-07 01:53:00,38.0,-99.9,29.54,ENE,77,7.0,12.0,-999,-99.99,,,-99.99,,2013-03-07 10:53:00,
2013-03-07 02:04:00,38.0,-99.9,29.54,NE,42,11.0,17.0,-999,-99.99,,,-99.99,,2013-03-07 11:04:00,
2013-03-07 02:12:00,38.0,-99.9,29.53,NE,40,9.0,17.0,-999,-99.99,,,-99.99,,2013-03-07 11:12:00,
2013-03-07 02:23:00,38.0,-99.9,29.52,NNE,28,6.0,18.0,-999,-99.99,,,-99.99,,2013-03-07 11:23:00,
2013-03-07 02:34:00,38.0,-99.9,29.52,ESE,117,5.0,15.0,-999,-99.99,,,-99.99,,2013-03-07 11:34:00,
2013-03-07 02:44:00,38.0,-99.9,29.51,ENE,63,5.0,12.0,-999,-99.99,,,-99.99,,2013-03-07 11:44:00,
2013-03-07 02:55:00,38.0,-99.9,29.51,South,187,4.0,12.0,-999,-99.99,,,-99.99,,2013-03-07 11:55:00,
2013-03-07 03:04:00,38.0,-99.9,29.50,NNE,17,6.0,31.0,-999,-99.99,,,-99.99,,2013-03-07 12:04:00,
2013-03-07 03:13:00,37.0,-99.9,29.49,North,358,6.0,21.0,-999,-99.99,,,-99.99,,2013-03-07 12:13:00,
2013-03-07 03:23:00,37.0,-99.9,29.47,NE,56,6.0,18.0,-999,-99.99,,,-99.99,,2013-03-07 12:23:00,
2013-03-07 03:34:00,37.0,-99.9,29.47,WSW,239,4.0,19.0,-999,-99.99,,,-99.99,,2013-03-07 12:34:00,
2013-03-07 03:43:00,37.0,-99.9,29.45,East,88,7.0,22.0,-999,-99.99,,,-99.99,,2013-03-07 12:43:00,
2013-03-07 04:03:00,37.0,-99.9,29.43,ENE,65,7.0,15.0,-999,-99.99,,,-99.99,,2013-03-07 13:03:00,
2013-03-07 04:13:00,36.0,-99.9,29.42,ESE,115,6.0,21.0,-999,-99.99,,,-99.99,,2013-03-07 13:13:00,
2013-03-07 04:23:00,35.0,-99.9,29.42,SSE,157,4.0,15.0,-999,-99.99,,,-99.99,,2013-03-07 13:23:00,
2013-03-07 04:33:00,35.0,-99.9,29.42,NNE,17,8.0,22.0,-999,-99.99,,,-99.99,,2013-03-07 13:33:00,
2013-03-07 04:42:00,34.0,-99.9,29.42,East,97,6.0,15.0,-999,-99.99,,,-99.99,,2013-03-07 13:42:00,
2013-03-07 04:53:00,34.0,-99.9,29.41,East,90,5.0,18.0,-999,-99.99,,,-99.99,,2013-03-07 13:53:00,
2013-03-07 05:02:00,33.0,-99.9,29.41,ENE,59,7.0,17.0,-999,-99.99,,,-99.99,,2013-03-07 14:02:00,
2013-03-07 05:12:00,33.0,-99.9,29.41,North,353,6.0,17.0,-999,-99.99,,,-99.99,,2013-03-07 14:12:00,
2013-03-07 05:23:00,33.0,-99.9,29.40,NNE,24,9.0,19.0,-999,-99.99,,,-99.99,,2013-03-07 14:23:00,
2013-03-07 05:34:00,33.0,-99.9,29.40,NNW,345,4.0,17.0,-999,-99.99,,,-99.99,,2013-03-07 14:34:00,
2013-03-07 05:43:00,33.0,-99.9,29.39,North,3,6.0,16.0,-999,-99.99,,,-99.99,,2013-03-07 14:43:00,
2013-03-07 05:54:00,33.0,-99.9,29.38,North,8,5.0,13.0,-999,-99.99,,,-99.99,,2013-03-07 14:54:00,
2013-03-07 06:03:00,33.0,-99.9,29.37,NNE,14,7.0,15.0,-999,-99.99,,,-99.99,,2013-03-07 15:03:00,
2013-03-07 06:13:00,33.0,-99.9,29.37,NW,317,5.0,11.0,-999,-99.99,,,-99.99,,2013-03-07 15:13:00,
2013-03-07 06:23:00,33.0,-99.9,29.37,NW,308,1.0,7.0,-999,-99.99,,,-99.99,,2013-03-07 15:23:00,
2013-03-07 06:33:00,33.0,-99.9,29.36,NW,316,2.0,10.0,-999,-99.99,,,-99.99,,2013-03-07 15:33:00,
2013-03-07 06:43:00,33.0,-99.9,29.36,NNW,333,4.0,10.0,-999,-99.99,,,-99.99,,2013-03-07 15:43:00,
2013-03-07 06:53:00,33.0,-99.9,29.35,NNW,338,2.0,9.0,-999,-99.99,,,-99.99,,2013-03-07 15:53:00,
2013-03-07 07:13:00,33.0,-99.9,29.34,NNE,19,6.0,19.0,-999,-99.99,,,-99.99,,2013-03-07 16:13:00,
2013-03-07 07:24:00,33.0,-99.9,29.33,NNE,29,6.0,14.0,-999,-99.99,,,-99.99,,2013-03-07 16:24:00,
2013-03-07 07:33:00,33.0,-99.9,29.33,North,1,3.0,18.0,-999,-99.99,,,-99.99,,2013-03-07 16:33:00,
2013-03-07 07:43:00,33.0,-99.9,29.32,NNE,15,5.0,14.0,-999,-99.99,,,-99.99,,2013-03-07 16:43:00,
2013-03-07 07:53:00,32.0,-99.9,29.31,NNE,18,5.0,12.0,-999,-99.99,,,-99.99,,2013-03-07 16:53:00,
2013-03-07 08:03:00,32.0,-99.9,29.31,North,10,5.0,12.0,-999,-99.99,,,-99.99,,2013-03-07 17:03:00,
2013-03-07 08:12:00,32.0,-99.9,29.31,North,10,3.0,10.0,-999,-99.99,,,-99.99,,2013-03-07 17:12:00,
2013-03-07 08:23:00,32.0,-99.9,29.30,North,-999,-999.0,-999.0,-999,-99.99,,,-99.99,,2013-03-07 17:23:00,
2013-03-07 08:34:00,32.0,-99.9,29.29,North,-999,-999.0,-999.0,-999,-99.99,,,-99.99,,2013-03-07 17:34:00,
2013-03-07 08:44:00,32.0,-99.9,29.28,North,-999,-999.0,-999.0,-999,-99.99,,,-99.99,,2013-03-07 17:44:00,
2013-03-07 09:04:00,32.0,-99.9,29.27,North,-999,-999.0,-999.0,-999,-99.99,,,-99.99,,2013-03-07 18:04:00,
2013-03-07 09:13:00,33.0,-99.9,29.27,North,-999,-999.0,-999.0,-999,-99.99,,,-99.99,,2013-03-07 18:13:00,
2013-03-07 09:22:00,33.0,-99.9,29.26,North,8,9.0,18.0,-999,-99.99,,,-99.99,,2013-03-07 18:22:00,
2013-03-07 09:33:00,33.0,-99.9,29.26,North,8,9.0,16.0,-999,-99.99,,,-99.99,,2013-03-07 18:33:00,
2013-03-07 09:43:00,33.0,-99.9,29.25,NNE,13,6.0,13.0,-999,-99.99,,,-99.99,,2013-03-07 18:43:00,
2013-03-07 09:53:00,34.0,-99.9,29.24,North,11,8.0,15.0,-999,-99.99,,,-99.99,,2013-03-07 18:53:00,
2013-03-07 10:03:00,34.0,-99.9,29.24,NNE,13,6.0,14.0,-999,-99.99,,,-99.99,,2013-03-07 19:03:00,
2013-03-07 10:12:00,34.0,-99.9,29.23,NNE,18,9.0,16.0,-999,-99.99,,,-99.99,,2013-03-07 19:12:00,
2013-03-07 10:24:00,35.0,-99.9,29.23,North,4,8.0,16.0,-999,-99.99,,,-99.99,,2013-03-07 19:24:00,
2013-03-07 10:35:00,35.0,-99.9,29.22,North,8,9.0,16.0,-999,-99.99,,,-99.99,,2013-03-07 19:35:00,
2013-03-07 10:44:00,35.0,-99.9,29.21,NNE,20,9.0,20.0,-999,-99.99,,,-99.99,,2013-03-07 19:44:00,
2013-03-07 10:53:00,35.0,-99.9,29.20,NNE,19,9.0,14.0,-999,-99.99,,,-99.99,,2013-03-07 19:53:00,
2013-03-07 11:02:00,35.0,-99.9,29.19,NNE,15,6.0,14.0,-999,-99.99,,,-99.99,,2013-03-07 20:02:00,
2013-03-07 11:14:00,36.0,-99.9,29.19,NNE,14,3.0,13.0,-999,-99.99,,,-99.99,,2013-03-07 20:14:00,
2013-03-07 11:23:00,36.0,-99.9,29.18,NE,41,5.0,10.0,-999,-99.99,,,-99.99,,2013-03-07 20:23:00,
2013-03-07 11:34:00,36.0,-99.9,29.18,ENE,63,4.0,12.0,-999,-99.99,,,-99.99,,2013-03-07 20:34:00,
2013-03-07 11:43:00,37.0,-99.9,29.17,ESE,110,6.0,12.0,-999,-99.99,,,-99.99,,2013-03-07 20:43:00,
2013-03-07 11:54:00,37.0,-99.9,29.17,ENE,75,3.0,8.0,-999,-99.99,,,-99.99,,2013-03-07 20:54:00,
2013-03-07 12:03:00,38.0,-99.9,29.17,ESE,120,5.0,12.0,-999,-99.99,,,-99.99,,2013-03-07 21:03:00,
2013-03-07 12:13:00,38.0,-99.9,29.16,SSE,167,6.0,9.0,-999,-99.99,,,-99.99,,2013-03-07 21:13:00,
2013-03-07 12:23:00,39.0,-99.9,29.16,ESE,114,5.0,15.0,-999,-99.99,,,-99.99,,2013-03-07 21:23:00,
2013-03-07 12:33:00,39.0,-99.9,29.15,SSE,149,5.0,10.0,-999,-99.99,,,-99.99,,2013-03-07 21:33:00,
2013-03-07 12:43:00,40.0,-99.9,29.15,SE,132,4.0,12.0,-999,-99.99,,,-99.99,,2013-03-07 21:43:00,
2013-03-07 12:53:00,40.0,-99.9,29.14,SSE,164,4.0,9.0,-999,-99.99,,,-99.99,,2013-03-07 21:53:00,
2013-03-07 13:02:00,40.0,-99.9,29.14,ESE,117,5.0,14.0,-999,-99.99,,,-99.99,,2013-03-07 22:02:00,
2013-03-07 13:12:00,40.0,-99.9,29.14,ESE,116,8.0,15.0,-999,-99.99,,,-99.99,,2013-03-07 22:12:00,
2013-03-07 13:23:00,40.0,-99.9,29.13,SE,132,6.0,12.0,-999,-99.99,,,-99.99,,2013-03-07 22:23:00,
2013-03-07 13:33:00,41.0,-99.9,29.13,SE,133,6.0,17.0,-999,-99.99,,,-99.99,,2013-03-07 22:33:00,
2013-03-07 13:44:00,41.0,-99.9,29.13,SE,129,6.0,13.0,-999,-99.99,,,-99.99,,2013-03-07 22:44:00,
2013-03-07 13:55:00,41.0,-99.9,29.14,SE,141,8.0,14.0,-999,-99.99,,,-99.99,,2013-03-07 22:55:00,
2013-03-07 14:03:00,40.0,-99.9,29.14,SE,141,7.0,15.0,-999,-99.99,,,-99.99,,2013-03-07 23:03:00,
2013-03-07 14:13:00,40.0,-99.9,29.16,SSE,148,18.0,24.0,-999,-99.99,,,-99.99,,2013-03-07 23:13:00,
2013-03-07 14:22:00,42.0,-99.9,29.17,SE,143,18.0,23.0,-999,-99.99,,,-99.99,,2013-03-07 23:22:00,
2013-03-07 14:35:00,42.0,-99.9,29.17,SSE,147,14.0,22.0,-999,-99.99,,,-99.99,,2013-03-07 23:35:00,
2013-03-07 14:44:00,42.0,-99.9,29.17,SE,143,13.0,22.0,-999,-99.99,,,-99.99,,2013-03-07 23:44:00,
2013-03-07 14:54:00,41.0,-99.9,29.18,SE,144,16.0,26.0,-999,-99.99,,,-99.99,,2013-03-07 23:54:00,
2013-03-07 15:05:00,39.0,-99.9,29.19,SSE,149,14.0,21.0,-999,-99.99,,,-99.99,,2013-03-08 00:05:00,
2013-03-07 15:13:00,39.0,-99.9,29.19,SE,136,14.0,24.0,-999,-99.99,,,-99.99,,2013-03-08 00:13:00,
2013-03-07 15:23:00,40.0,-99.9,29.20,SSE,151,9.0,15.0,-999,-99.99,,,-99.99,,2013-03-08 00:23:00,
2013-03-07 15:35:00,41.0,-99.9,29.20,SE,139,13.0,18.0,-999,-99.99,,,-99.99,,2013-03-08 00:35:00,
2013-03-07 15:44:00,41.0,-99.9,29.21,SSE,147,12.0,17.0,-999,-99.99,,,-99.99,,2013-03-08 00:44:00,
2013-03-07 15:54:00,41.0,-99.9,29.21,SE,141,14.0,21.0,-999,-99.99,,,-99.99,,2013-03-08 00:54:00,
2013-03-07 16:02:00,41.0,-99.9,29.21,SE,144,12.0,18.0,-999,-99.99,,,-99.99,,2013-03-08 01:02:00,
2013-03-07 16:12:00,41.0,-99.9,29.21,SE,145,10.0,16.0,-999,-99.99,,,-99.99,,2013-03-08 01:12:00,
2013-03-07 16:22:00,41.0,-99.9,29.22,SE,134,13.0,20.0,-999,-99.99,,,-99.99,,2013-03-08 01:22:00,
2013-03-07 16:33:00,41.0,-99.9,29.22,SSE,149,9.0,16.0,-999,-99.99,,,-99.99,,2013-03-08 01:33:00,
2013-03-07 16:42:00,41.0,-99.9,29.23,SE,145,9.0,16.0,-999,-99.99,,,-99.99,,2013-03-08 01:42:00,
2013-03-07 16:52:00,41.0,-99.9,29.23,SE,127,10.0,18.0,-999,-99.99,,,-99.99,,2013-03-08 01:52:00,
2013-03-07 17:02:00,41.0,-99.9,29.23,SSE,149,13.0,17.0,-999,-99.99,,,-99.99,,2013-03-08 02:02:00,
2013-03-07 17:12:00,41.0,-99.9,29.24,SE,146,10.0,17.0,-999,-99.99,,,-99.99,,2013-03-08 02:12:00,
2013-03-07 17:22:00,40.0,-99.9,29.25,SE,141,6.0,14.0,-999,-99.99,,,-99.99,,2013-03-08 02:22:00,
2013-03-07 17:32:00,40.0,-99.9,29.25,SE,145,9.0,16.0,-999,-99.99,,,-99.99,,2013-03-08 02:32:00,
2013-03-07 17:42:00,41.0,-99.9,29.25,SE,141,15.0,27.0,-999,-99.99,,,-99.99,,2013-03-08 02:42:00,
2013-03-07 17:53:00,41.0,-99.9,29.26,SE,146,17.0,25.0,-999,-99.99,,,-99.99,,2013-03-08 02:53:00,
2013-03-07 18:02:00,40.0,-99.9,29.26,SE,134,11.0,21.0,-999,-99.99,,,-99.99,,2013-03-08 03:02:00,
2013-03-07 18:12:00,41.0,-99.9,29.27,SE,141,9.0,18.0,-999,-99.99,,,-99.99,,2013-03-08 03:12:00,
2013-03-07 18:23:00,40.0,-99.9,29.27,SSE,148,13.0,18.0,-999,-99.99,,,-99.99,,2013-03-08 03:23:00,
2013-03-07 18:33:00,40.0,-99.9,29.28,SE,142,10.0,19.0,-999,-99.99,,,-99.99,,2013-03-08 03:33:00,
2013-03-07 18:43:00,40.0,-99.9,29.28,SSE,161,8.0,13.0,-999,-99.99,,,-99.99,,2013-03-08 03:43:00,
2013-03-07 18:53:00,40.0,-99.9,29.28,SE,143,7.0,11.0,-999,-99.99,,,-99.99,,2013-03-08 03:53:00,
2013-03-07 19:02:00,40.0,-99.9,29.28,SSE,154,11.0,13.0,-999,-99.99,,,-99.99,,2013-03-08 04:02:00,
2013-03-07 19:12:00,40.0,-99.9,29.28,SE,142,8.0,21.0,-999,-99.99,,,-99.99,,2013-03-08 04:12:00,
2013-03-07 19:22:00,40.0,-99.9,29.28,SSE,148,8.0,16.0,-999,-99.99,,,-99.99,,2013-03-08 04:22:00,
2013-03-07 19:32:00,40.0,-99.9,29.28,SSE,148,11.0,15.0,-999,-99.99,,,-99.99,,2013-03-08 04:32:00,
2013-03-07 19:42:00,40.0,-99.9,29.29,SSE,152,4.0,9.0,-999,-99.99,,,-99.99,,2013-03-08 04:42:00,
2013-03-07 19:52:00,40.0,-99.9,29.29,SE,146,11.0,15.0,-999,-99.99,,,-99.99,,2013-03-08 04:52:00,
2013-03-07 20:02:00,40.0,-99.9,29.29,SSE,150,5.0,12.0,-999,-99.99,,,-99.99,,2013-03-08 05:02:00,
2013-03-07 20:12:00,40.0,-99.9,29.30,SE,139,9.0,13.0,-999,-99.99,,,-99.99,,2013-03-08 05:12:00,
2013-03-07 20:22:00,40.0,-99.9,29.31,SE,129,7.0,14.0,-999,-99.99,,,-99.99,,2013-03-08 05:22:00,
2013-03-07 20:33:00,40.0,-99.9,29.31,SSE,147,11.0,18.0,-999,-99.99,,,-99.99,,2013-03-08 05:33:00,
2013-03-07 20:42:00,40.0,-99.9,29.31,SE,143,10.0,28.0,-999,-99.99,,,-99.99,,2013-03-08 05:42:00,
2013-03-07 20:52:00,40.0,-99.9,29.32,SE,135,6.0,12.0,-999,-99.99,,,-99.99,,2013-03-08 05:52:00,
2013-03-07 21:02:00,40.0,-99.9,29.32,SE,127,6.0,12.0,-999,-99.99,,,-99.99,,2013-03-08 06:02:00,
2013-03-07 21:11:00,40.0,-99.9,29.32,SE,137,3.0,9.0,-999,-99.99,,,-99.99,,2013-03-08 06:11:00,
2013-03-07 21:22:00,40.0,-99.9,29.33,SSE,152,7.0,11.0,-999,-99.99,,,-99.99,,2013-03-08 06:22:00,
2013-03-07 21:32:00,40.0,-99.9,29.33,SE,132,9.0,17.0,-999,-99.99,,,-99.99,,2013-03-08 06:32:00,
2013-03-07 21:42:00,40.0,-99.9,29.33,SE,128,4.0,12.0,-999,-99.99,,,-99.99,,2013-03-08 06:42:00,
2013-03-07 21:52:00,40.0,-99.9,29.34,SSE,148,7.0,12.0,-999,-99.99,,,-99.99,,2013-03-08 06:52:00,
2013-03-07 22:01:00,40.0,-99.9,29.33,SE,127,7.0,12.0,-999,-99.99,,,-99.99,,2013-03-08 07:01:00,
2013-03-07 22:11:00,40.0,-99.9,29.34,SE,146,14.0,20.0,-999,-99.99,,,-99.99,,2013-03-08 07:11:00,
2013-03-07 22:22:00,40.0,-99.9,29.34,SSE,149,12.0,18.0,-999,-99.99,,,-99.99,,2013-03-08 07:22:00,
2013-03-07 22:32:00,40.0,-99.9,29.34,SE,145,14.0,29.0,-999,-99.99,,,-99.99,,2013-03-08 07:32:00,
2013-03-07 22:42:00,40.0,-99.9,29.34,SE,137,10.0,23.0,-999,-99.99,,,-99.99,,2013-03-08 07:42:00,
2013-03-07 22:52:00,40.0,-99.9,29.34,SSE,150,14.0,24.0,-999,-99.99,,,-99.99,,2013-03-08 07:52:00,
2013-03-07 23:02:00,41.0,-99.9,29.34,SE,145,22.0,30.0,-999,-99.99,,,-99.99,,2013-03-08 08:02:00,
2013-03-07 23:11:00,40.0,-99.9,29.34,SE,128,11.0,28.0,-999,-99.99,,,-99.99,,2013-03-08 08:11:00,
2013-03-07 23:22:00,40.0,-99.9,29.34,SE,127,17.0,26.0,-999,-99.99,,,-99.99,,2013-03-08 08:22:00,
2013-03-07 23:32:00,40.0,-99.9,29.35,SSE,147,15.0,21.0,-999,-99.99,,,-99.99,,2013-03-08 08:32:00,
2013-03-07 23:42:00,40.0,-99.9,29.35,SE,144,16.0,20.0,-999,-99.99,,,-99.99,,2013-03-08 08:42:00,
2013-03-07 23:52:00,40.0,-99.9,29.35,SE,135,11.0,21.0,-999,-99.99,,,-99.99,,2013-03-08 08:52:00,